createdAt,value
2017-08-23T00:01:25.660Z,66.60
2017-08-23T00:03:53.940Z,66.90
2017-08-23T00:06:22.186Z,66.90
2017-08-23T00:08:50.432Z,66.90
2017-08-23T00:11:18.696Z,67.10
2017-08-23T00:13:47.554Z,67.20
2017-08-23T00:16:15.792Z,67.10
2017-08-23T00:18:44.157Z,67.40
2017-08-23T00:21:12.407Z,67.40
2017-08-23T00:23:40.964Z,67.20
2017-08-23T00:26:09.181Z,67.10
2017-08-23T00:28:37.432Z,66.80
2017-08-23T00:31:05.708Z,66.50
2017-08-23T00:33:34.169Z,66.40
2017-08-23T00:36:02.378Z,66.40
2017-08-23T00:38:30.715Z,66.10
2017-08-23T00:40:58.958Z,66.10
2017-08-23T00:43:27.580Z,66.10
2017-08-23T00:45:55.794Z,66.10
2017-08-23T00:48:24.256Z,66.00
2017-08-23T00:50:53.289Z,66.00
2017-08-23T00:53:21.513Z,65.90
2017-08-23T00:55:50.536Z,66.10
2017-08-23T00:58:18.777Z,66.00
2017-08-23T01:00:47.040Z,66.30
2017-08-23T01:03:15.299Z,68.00
2017-08-23T01:05:43.533Z,67.50
2017-08-23T01:08:11.846Z,67.40
2017-08-23T01:10:40.106Z,67.00
2017-08-23T01:13:12.142Z,67.00
2017-08-23T01:15:40.425Z,66.90
2017-08-23T01:18:08.688Z,67.30
2017-08-23T01:20:38.027Z,67.90
2017-08-23T01:23:06.679Z,69.10
2017-08-23T01:25:34.929Z,67.70
2017-08-23T01:28:04.549Z,68.30
2017-08-23T01:30:33.605Z,68.20
2017-08-23T01:33:01.844Z,68.20
2017-08-23T01:35:30.136Z,68.30
2017-08-23T01:37:58.396Z,68.90
2017-08-23T01:40:26.660Z,69.90
2017-08-23T01:42:55.325Z,69.80
2017-08-23T01:45:24.410Z,69.60
2017-08-23T01:47:52.622Z,69.60
2017-08-23T01:50:20.901Z,69.70
2017-08-23T01:52:49.165Z,69.70
2017-08-23T01:55:17.425Z,69.70
2017-08-23T01:57:45.676Z,69.70
2017-08-23T02:00:13.921Z,69.50
2017-08-23T02:02:42.303Z,69.40
2017-08-23T02:05:10.550Z,69.50
2017-08-23T02:07:38.808Z,69.80
2017-08-23T02:10:07.103Z,69.60
2017-08-23T02:12:35.345Z,69.60
2017-08-23T02:15:03.705Z,69.70
2017-08-23T02:17:32.084Z,69.70
2017-08-23T02:20:00.398Z,69.90
2017-08-23T02:22:28.677Z,70.00
2017-08-23T02:24:56.936Z,70.20
2017-08-23T02:27:25.232Z,70.30
2017-08-23T02:29:53.506Z,70.30
2017-08-23T02:32:22.600Z,70.40
2017-08-23T02:34:50.830Z,70.40
2017-08-23T02:37:19.144Z,70.50
2017-08-23T02:39:48.600Z,70.40
2017-08-23T02:42:17.503Z,70.50
2017-08-23T02:44:45.746Z,70.50
2017-08-23T02:47:14.001Z,70.70
2017-08-23T02:49:42.267Z,70.70
2017-08-23T02:52:10.570Z,71.00
2017-08-23T02:54:38.812Z,70.90
2017-08-23T02:57:07.066Z,70.90
2017-08-23T02:59:35.539Z,71.00
2017-08-23T03:02:03.827Z,71.10
2017-08-23T03:04:32.824Z,71.50
2017-08-23T03:07:01.849Z,71.00
2017-08-23T03:09:30.140Z,71.00
2017-08-23T03:11:58.422Z,70.90
2017-08-23T03:14:26.646Z,70.90
2017-08-23T03:16:54.928Z,71.00
2017-08-23T03:19:23.178Z,71.00
2017-08-23T03:21:51.457Z,71.00
2017-08-23T03:24:19.732Z,70.90
2017-08-23T03:26:47.985Z,71.10
2017-08-23T03:29:16.246Z,71.00
2017-08-23T03:31:44.500Z,71.20
2017-08-23T03:34:12.778Z,71.30
2017-08-23T03:36:41.038Z,71.30
2017-08-23T03:39:09.378Z,71.30
2017-08-23T03:41:37.650Z,71.60
2017-08-23T03:44:05.988Z,71.70
2017-08-23T03:46:34.879Z,71.80
2017-08-23T03:49:05.449Z,71.70
2017-08-23T03:51:34.666Z,72.00
2017-08-23T03:54:03.688Z,71.60
2017-08-23T03:56:32.328Z,71.60
2017-08-23T03:59:00.640Z,71.40
2017-08-23T04:01:28.873Z,71.30
2017-08-23T04:03:57.269Z,71.30
2017-08-23T04:06:25.642Z,71.40
2017-08-23T04:08:53.964Z,71.60
2017-08-23T04:11:22.251Z,71.80
2017-08-23T04:13:50.511Z,71.90
2017-08-23T04:16:18.758Z,72.30
2017-08-23T04:18:47.791Z,72.40
2017-08-23T04:21:16.026Z,72.40
2017-08-23T04:23:44.304Z,72.80
2017-08-23T04:26:13.314Z,73.00
2017-08-23T04:28:41.700Z,72.90
2017-08-23T04:31:09.993Z,73.30
2017-08-23T04:33:38.242Z,73.30
2017-08-23T04:36:06.875Z,73.40
2017-08-23T04:38:40.896Z,73.40
2017-08-23T04:41:09.134Z,74.10
2017-08-23T04:43:37.547Z,74.60
2017-08-23T04:46:05.791Z,74.90
2017-08-23T04:48:34.061Z,74.70
2017-08-23T04:51:02.338Z,74.50
2017-08-23T04:53:30.593Z,74.50
2017-08-23T04:55:58.853Z,74.30
2017-08-23T04:58:27.163Z,74.30
2017-08-23T05:00:55.400Z,74.20
2017-08-23T05:03:24.470Z,73.90
2017-08-23T05:05:52.727Z,73.80
2017-08-23T05:08:21.049Z,73.60
2017-08-23T05:10:49.907Z,73.20
2017-08-23T05:13:18.145Z,73.10
2017-08-23T05:15:46.430Z,72.80
2017-08-23T05:18:14.672Z,72.80
2017-08-23T05:20:42.939Z,73.00
2017-08-23T05:23:11.196Z,72.90
2017-08-23T05:25:39.502Z,72.90
2017-08-23T05:28:07.748Z,72.90
2017-08-23T05:30:36.260Z,73.10
2017-08-23T05:33:04.698Z,73.30
2017-08-23T05:35:33.084Z,72.90
2017-08-23T05:38:01.411Z,72.50
2017-08-23T05:40:29.725Z,72.60
2017-08-23T05:42:58.118Z,72.00
2017-08-23T05:45:26.366Z,71.00
2017-08-23T05:47:54.785Z,70.40
2017-08-23T05:50:23.059Z,69.70
2017-08-23T05:52:51.286Z,68.70
2017-08-23T05:55:19.549Z,68.10
2017-08-23T05:57:48.022Z,67.40
2017-08-23T06:00:17.434Z,67.00
2017-08-23T06:02:45.789Z,66.50
2017-08-23T06:05:15.277Z,66.70
2017-08-23T06:07:43.544Z,66.40
2017-08-23T06:10:11.949Z,66.00
2017-08-23T06:12:40.257Z,66.10
2017-08-23T06:15:08.504Z,65.30
2017-08-23T06:17:36.774Z,65.40
2017-08-23T06:20:05.033Z,65.30
2017-08-23T06:22:33.301Z,65.50
2017-08-23T06:25:02.325Z,65.70
2017-08-23T06:27:30.573Z,65.50
2017-08-23T06:29:59.588Z,65.40
2017-08-23T06:32:28.593Z,64.20
2017-08-23T06:34:56.947Z,64.20
2017-08-23T06:37:25.389Z,63.60
2017-08-23T06:39:57.371Z,63.30
2017-08-23T06:42:25.929Z,62.90
2017-08-23T06:44:58.965Z,62.40
2017-08-23T06:47:27.363Z,60.90
2017-08-23T06:49:55.604Z,61.20
2017-08-23T06:52:24.793Z,59.50
2017-08-23T06:54:53.035Z,59.50
2017-08-23T06:57:22.318Z,59.70
2017-08-23T06:59:50.634Z,59.40
2017-08-23T07:02:18.884Z,59.50
2017-08-23T07:04:47.192Z,58.50
2017-08-23T07:07:16.457Z,57.40
2017-08-23T07:09:44.726Z,57.40
2017-08-23T07:12:13.094Z,57.30
2017-08-23T07:14:41.315Z,56.80
2017-08-23T07:17:09.634Z,56.70
2017-08-23T07:19:38.451Z,56.60
2017-08-23T07:22:06.736Z,56.30
2017-08-23T07:24:36.627Z,56.20
2017-08-23T07:27:04.917Z,55.50
2017-08-23T07:29:35.300Z,55.40
2017-08-23T07:32:04.709Z,53.30
2017-08-23T07:34:34.116Z,52.80
2017-08-23T07:37:02.981Z,52.70
2017-08-23T07:39:31.292Z,52.40
2017-08-23T07:41:59.567Z,51.50
2017-08-23T07:44:28.477Z,50.70
2017-08-23T07:46:57.632Z,50.30
2017-08-23T07:49:26.066Z,49.00
2017-08-23T07:51:54.560Z,48.70
2017-08-23T07:54:22.873Z,47.80
2017-08-23T07:56:51.148Z,47.20
2017-08-23T07:59:21.701Z,47.10
2017-08-23T08:01:50.062Z,45.30
2017-08-23T08:04:19.237Z,45.00
2017-08-23T08:06:47.843Z,44.20
2017-08-23T08:09:16.136Z,43.80
2017-08-23T08:11:44.396Z,43.30
2017-08-23T08:14:12.724Z,42.50
2017-08-23T08:16:41.149Z,41.50
2017-08-23T08:19:09.377Z,41.40
2017-08-23T08:21:37.617Z,40.60
2017-08-23T08:24:05.871Z,40.20
2017-08-23T08:26:34.120Z,39.90
2017-08-23T08:29:03.157Z,39.10
2017-08-23T08:31:31.384Z,39.10
2017-08-23T08:33:59.681Z,38.70
2017-08-23T08:36:30.249Z,38.20
2017-08-23T08:38:58.628Z,38.20
2017-08-23T08:41:27.096Z,38.30
2017-08-23T08:43:55.512Z,37.60
2017-08-23T08:46:23.739Z,37.60
2017-08-23T08:48:52.033Z,37.60
2017-08-23T08:51:20.589Z,37.20
2017-08-23T08:53:48.864Z,37.20
2017-08-23T08:56:17.856Z,37.30
2017-08-23T08:58:46.999Z,37.90
2017-08-23T09:01:15.987Z,37.20
2017-08-23T09:03:45.185Z,37.20
2017-08-23T09:06:13.445Z,36.90
2017-08-23T09:08:42.248Z,37.40
2017-08-23T09:11:10.489Z,36.70
2017-08-23T09:13:38.745Z,36.50
2017-08-23T09:16:07.749Z,36.40
2017-08-23T09:18:36.584Z,36.30
2017-08-23T09:21:05.061Z,36.60
2017-08-23T09:23:33.341Z,36.80
2017-08-23T09:26:01.604Z,36.80
2017-08-23T09:28:30.392Z,37.00
2017-08-23T09:30:59.691Z,36.90
2017-08-23T09:33:28.061Z,36.70
2017-08-23T09:35:56.554Z,36.70
2017-08-23T09:38:25.536Z,36.80
2017-08-23T09:40:54.770Z,36.60
2017-08-23T09:43:23.021Z,36.40
2017-08-23T09:45:54.542Z,36.10
2017-08-23T09:48:22.783Z,36.10
2017-08-23T09:50:51.040Z,35.50
2017-08-23T09:53:19.309Z,35.30
2017-08-23T09:55:47.546Z,35.50
2017-08-23T09:58:17.140Z,36.00
2017-08-23T10:00:45.422Z,35.70
2017-08-23T10:03:13.658Z,35.60
2017-08-23T10:05:41.911Z,35.10
2017-08-23T10:08:10.217Z,35.40
2017-08-23T10:10:40.112Z,35.90
2017-08-23T10:13:08.394Z,35.50
2017-08-23T10:15:36.610Z,35.30
2017-08-23T10:18:04.978Z,35.40
2017-08-23T10:20:34.001Z,36.30
2017-08-23T10:23:02.233Z,36.30
2017-08-23T10:25:30.508Z,35.20
2017-08-23T10:27:58.755Z,35.40
2017-08-23T10:30:26.984Z,35.20
2017-08-23T10:32:55.494Z,34.60
2017-08-23T10:35:24.133Z,35.10
2017-08-23T10:37:52.394Z,34.80
2017-08-23T10:40:20.623Z,35.00
2017-08-23T10:42:49.297Z,35.40
2017-08-23T10:45:17.533Z,35.50
2017-08-23T10:47:45.830Z,35.10
2017-08-23T10:50:14.071Z,34.10
2017-08-23T10:52:43.085Z,34.10
2017-08-23T10:55:11.327Z,34.10
2017-08-23T10:57:39.599Z,33.70
2017-08-23T11:00:07.846Z,34.10
2017-08-23T11:02:36.093Z,33.30
2017-08-23T11:05:04.352Z,32.20
2017-08-23T11:07:32.619Z,31.60
2017-08-23T11:10:01.431Z,31.70
2017-08-23T11:12:29.706Z,32.50
2017-08-23T11:14:57.972Z,31.40
2017-08-23T11:17:26.210Z,31.30
2017-08-23T11:19:54.632Z,30.50
2017-08-23T11:22:23.020Z,30.80
2017-08-23T11:24:51.602Z,30.00
2017-08-23T11:27:19.887Z,29.00
2017-08-23T11:29:48.270Z,28.60
2017-08-23T11:32:16.562Z,27.70
2017-08-23T11:34:44.805Z,27.50
2017-08-23T11:37:13.371Z,27.80
2017-08-23T11:39:41.641Z,27.70
2017-08-23T11:42:10.553Z,27.40
2017-08-23T11:44:38.806Z,27.80
2017-08-23T11:47:08.318Z,27.40
2017-08-23T11:49:36.592Z,27.20
2017-08-23T11:52:05.486Z,27.50
2017-08-23T11:54:33.885Z,28.10
2017-08-23T11:57:11.289Z,27.50
2017-08-23T11:59:40.943Z,26.90
2017-08-23T12:02:09.223Z,27.00
2017-08-23T12:04:37.497Z,27.50
2017-08-23T12:07:05.845Z,27.40
2017-08-23T12:09:34.134Z,27.60
2017-08-23T12:12:02.382Z,27.90
2017-08-23T12:14:30.650Z,27.80
2017-08-23T12:16:58.881Z,27.60
2017-08-23T12:19:27.162Z,28.00
2017-08-23T12:21:55.429Z,28.50
2017-08-23T12:24:23.717Z,28.50
2017-08-23T12:26:51.970Z,27.90
2017-08-23T12:29:20.216Z,28.40
2017-08-23T12:31:48.751Z,28.60
2017-08-23T12:34:17.003Z,29.20
2017-08-23T12:36:46.245Z,29.30
2017-08-23T12:39:15.594Z,29.30
2017-08-23T12:41:44.685Z,30.10
2017-08-23T12:44:13.316Z,30.40
2017-08-23T12:46:41.557Z,30.70
2017-08-23T12:49:09.899Z,31.50
2017-08-23T12:51:38.285Z,32.10
2017-08-23T12:54:07.529Z,32.70
2017-08-23T12:56:35.762Z,32.20
2017-08-23T12:59:05.020Z,32.10
2017-08-23T13:01:33.389Z,32.40
2017-08-23T13:04:01.669Z,32.60
2017-08-23T13:06:29.957Z,32.70
2017-08-23T13:08:58.228Z,32.90
2017-08-23T13:11:26.542Z,34.30
2017-08-23T13:13:54.829Z,33.20
2017-08-23T13:16:23.936Z,33.60
2017-08-23T13:18:52.424Z,33.60
2017-08-23T13:21:20.832Z,34.00
2017-08-23T13:23:49.225Z,33.60
2017-08-23T13:26:17.896Z,33.90
2017-08-23T13:28:46.442Z,34.60
2017-08-23T13:31:16.115Z,34.30
2017-08-23T13:33:44.825Z,34.10
2017-08-23T13:36:13.223Z,33.60
2017-08-23T13:38:41.674Z,34.30
2017-08-23T13:41:10.325Z,34.50
2017-08-23T13:43:38.680Z,33.70
2017-08-23T13:46:06.947Z,33.40
2017-08-23T13:48:35.931Z,33.90
2017-08-23T13:51:04.142Z,33.90
2017-08-23T13:53:32.428Z,34.30
2017-08-23T13:56:00.691Z,34.20
2017-08-23T13:58:29.430Z,35.50
2017-08-23T14:00:57.768Z,35.10
2017-08-23T14:03:26.238Z,34.80
2017-08-23T14:05:54.587Z,35.40
2017-08-23T14:08:22.900Z,35.00
2017-08-23T14:10:51.159Z,34.50
2017-08-23T14:13:19.435Z,35.70
2017-08-23T14:15:47.687Z,36.90
2017-08-23T14:18:16.036Z,36.40
2017-08-23T14:20:44.513Z,36.70
2017-08-23T14:23:12.768Z,36.40
2017-08-23T14:25:41.040Z,36.30
2017-08-23T14:28:09.521Z,36.30
2017-08-23T14:30:37.882Z,36.70
2017-08-23T14:33:06.174Z,37.60
2017-08-23T14:35:34.518Z,38.00
2017-08-23T14:38:02.801Z,37.00
2017-08-23T14:40:31.120Z,37.10
2017-08-23T14:42:59.349Z,37.00
2017-08-23T14:45:27.859Z,36.50
2017-08-23T14:47:56.265Z,35.90
2017-08-23T14:50:25.755Z,36.20
2017-08-23T14:52:55.633Z,35.70
2017-08-23T14:55:23.885Z,36.30
2017-08-23T14:57:55.753Z,35.60
2017-08-23T15:00:24.784Z,36.50
2017-08-23T15:02:53.061Z,36.40
2017-08-23T15:05:21.404Z,36.90
2017-08-23T15:07:49.694Z,36.90
2017-08-23T15:10:17.981Z,37.00
2017-08-23T15:12:46.362Z,37.20
2017-08-23T15:15:14.613Z,37.40
2017-08-23T15:17:43.337Z,37.50
2017-08-23T15:20:11.671Z,37.80
2017-08-23T15:22:39.913Z,37.40
2017-08-23T15:25:08.225Z,36.20
2017-08-23T15:27:36.799Z,37.30
2017-08-23T15:30:05.235Z,38.00
2017-08-23T15:32:33.637Z,38.30
2017-08-23T15:35:01.976Z,37.60
2017-08-23T15:37:30.347Z,37.70
2017-08-23T15:40:00.140Z,37.70
2017-08-23T15:42:29.341Z,38.40
2017-08-23T15:44:57.564Z,39.00
2017-08-23T15:47:25.914Z,39.50
2017-08-23T15:49:54.145Z,40.00
2017-08-23T15:52:22.436Z,39.70
2017-08-23T15:54:50.887Z,39.70
2017-08-23T15:57:20.790Z,40.10
2017-08-23T15:59:49.059Z,40.40
2017-08-23T16:02:17.333Z,40.00
2017-08-23T16:04:45.574Z,39.80
2017-08-23T16:07:13.949Z,40.20
2017-08-23T16:09:43.260Z,40.60
2017-08-23T16:12:11.629Z,40.60
2017-08-23T16:14:39.982Z,40.90
2017-08-23T16:17:08.212Z,40.30
2017-08-23T16:19:36.472Z,40.40
2017-08-23T16:22:05.420Z,41.20
2017-08-23T16:24:33.764Z,40.80
2017-08-23T16:27:02.024Z,41.30
2017-08-23T16:29:30.382Z,42.00
2017-08-23T16:31:58.840Z,41.80
2017-08-23T16:34:27.734Z,41.40
2017-08-23T16:36:56.010Z,41.50
2017-08-23T16:39:24.301Z,41.40
2017-08-23T16:41:53.806Z,41.90
2017-08-23T16:44:22.970Z,42.20
2017-08-23T16:46:51.380Z,42.10
2017-08-23T16:49:19.597Z,41.80
2017-08-23T16:51:48.141Z,42.20
2017-08-23T16:54:18.678Z,42.20
2017-08-23T16:56:46.977Z,42.20
2017-08-23T16:59:15.230Z,42.60
2017-08-23T17:01:43.818Z,42.40
2017-08-23T17:04:12.281Z,42.40
2017-08-23T17:06:40.495Z,42.30
2017-08-23T17:09:08.817Z,42.50
2017-08-23T17:11:37.759Z,42.80
2017-08-23T17:14:06.233Z,43.00
2017-08-23T17:16:36.388Z,43.20
2017-08-23T17:19:04.642Z,43.20
2017-08-23T17:21:33.895Z,43.20
2017-08-23T17:24:02.161Z,43.50
2017-08-23T17:26:31.566Z,43.70
2017-08-23T17:28:59.928Z,43.80
2017-08-23T17:31:29.081Z,43.70
2017-08-23T17:33:57.467Z,43.90
2017-08-23T17:36:25.746Z,44.20
2017-08-23T17:38:54.187Z,44.70
2017-08-23T17:41:22.443Z,45.00
2017-08-23T17:43:50.858Z,45.00
2017-08-23T17:46:19.340Z,44.80
2017-08-23T17:48:47.795Z,47.80
2017-08-23T17:51:16.174Z,48.50
2017-08-23T17:53:44.499Z,51.50
2017-08-23T17:56:12.712Z,53.60
2017-08-23T17:58:41.145Z,51.90
2017-08-23T18:01:09.780Z,53.30
2017-08-23T18:03:40.305Z,55.20
2017-08-23T18:06:08.854Z,55.10
2017-08-23T18:08:37.412Z,55.50
2017-08-23T18:11:06.753Z,54.80
2017-08-23T18:13:34.986Z,53.80
2017-08-23T18:16:03.444Z,54.70
2017-08-23T18:18:31.717Z,54.80
2017-08-23T18:21:00.143Z,55.20
2017-08-23T18:23:28.975Z,55.30
2017-08-23T18:25:57.460Z,56.00
2017-08-23T18:28:26.055Z,55.00
2017-08-23T18:30:54.515Z,56.20
2017-08-23T18:33:27.218Z,55.70
2017-08-23T18:35:55.891Z,54.90
2017-08-23T18:38:28.005Z,54.80
2017-08-23T18:41:00.240Z,55.90
2017-08-23T18:43:29.772Z,57.20
2017-08-23T18:45:58.089Z,57.20
2017-08-23T18:48:26.356Z,57.50
2017-08-23T18:50:54.699Z,57.80
2017-08-23T18:53:24.872Z,58.70
2017-08-23T18:55:53.203Z,58.70
2017-08-23T18:58:21.560Z,59.50
2017-08-23T19:00:49.890Z,58.50
2017-08-23T19:03:18.258Z,58.90
2017-08-23T19:05:46.737Z,59.10
2017-08-23T19:08:14.961Z,58.90
2017-08-23T19:10:44.126Z,59.60
2017-08-23T19:13:12.338Z,59.60
2017-08-23T19:15:40.596Z,59.60
2017-08-23T19:18:08.859Z,58.90
2017-08-23T19:20:37.544Z,58.80
2017-08-23T19:23:05.839Z,58.60
2017-08-23T19:25:35.242Z,58.10
2017-08-23T19:28:03.559Z,58.10
2017-08-23T19:30:31.803Z,58.90
2017-08-23T19:33:00.063Z,58.60
2017-08-23T19:35:28.369Z,58.50
2017-08-23T19:37:56.595Z,58.50
2017-08-23T19:40:24.864Z,58.00
2017-08-23T19:42:53.186Z,58.80
2017-08-23T19:45:21.501Z,58.10
2017-08-23T19:47:49.977Z,58.00
2017-08-23T19:50:18.342Z,58.30
2017-08-23T19:52:46.602Z,58.30
2017-08-23T19:55:15.700Z,58.70
2017-08-23T19:57:44.404Z,58.70
2017-08-23T20:00:12.751Z,59.00
2017-08-23T20:02:40.996Z,58.60
2017-08-23T20:05:09.311Z,58.60
2017-08-23T20:07:37.561Z,58.30
2017-08-23T20:10:05.861Z,58.50
2017-08-23T20:12:34.133Z,59.20
2017-08-23T20:15:02.393Z,59.40
2017-08-23T20:17:30.898Z,59.30
2017-08-23T20:19:59.398Z,59.70
2017-08-23T20:22:27.803Z,59.80
2017-08-23T20:24:56.040Z,59.90
2017-08-23T20:27:24.341Z,59.60
2017-08-23T20:29:52.587Z,59.60
2017-08-23T20:32:20.908Z,59.60
2017-08-23T20:34:49.141Z,59.40
2017-08-23T20:37:17.464Z,59.70
2017-08-23T20:39:45.733Z,59.30
2017-08-23T20:42:13.981Z,59.60
2017-08-23T20:44:43.009Z,60.00
2017-08-23T20:47:11.384Z,59.90
2017-08-23T20:49:39.703Z,60.10
2017-08-23T20:52:08.066Z,60.70
2017-08-23T20:54:36.333Z,60.10
2017-08-23T20:57:04.812Z,61.20
2017-08-23T20:59:33.837Z,61.30
2017-08-23T21:02:02.250Z,61.30
2017-08-23T21:04:30.530Z,61.70
2017-08-23T21:06:58.961Z,61.80
2017-08-23T21:09:27.221Z,61.50
2017-08-23T21:11:55.538Z,61.50
2017-08-23T21:14:23.798Z,61.60
2017-08-23T21:16:52.043Z,61.70
2017-08-23T21:19:20.322Z,61.70
2017-08-23T21:21:48.610Z,61.70
2017-08-23T21:24:18.663Z,63.00
2017-08-23T21:26:46.934Z,62.40
2017-08-23T21:29:15.165Z,62.70
2017-08-23T21:31:44.225Z,63.20
2017-08-23T21:34:12.508Z,63.10
2017-08-23T21:36:40.790Z,63.30
2017-08-23T21:39:09.221Z,63.10
2017-08-23T21:41:37.459Z,64.70
2017-08-23T21:44:05.729Z,64.10
2017-08-23T21:46:34.845Z,64.50
2017-08-23T21:49:03.855Z,64.30
2017-08-23T21:51:32.122Z,64.20
2017-08-23T21:54:00.552Z,64.20
2017-08-23T21:56:28.835Z,64.50
2017-08-23T21:58:57.150Z,64.20
2017-08-23T22:01:25.397Z,65.30
2017-08-23T22:03:53.663Z,65.10
2017-08-23T22:06:21.898Z,64.90
2017-08-23T22:08:50.245Z,64.60
2017-08-23T22:11:19.991Z,65.10
2017-08-23T22:13:48.330Z,66.10
2017-08-23T22:16:16.585Z,65.20
2017-08-23T22:18:44.850Z,65.90
2017-08-23T22:21:13.092Z,65.20
2017-08-23T22:23:41.349Z,66.30
2017-08-23T22:26:09.610Z,65.80
2017-08-23T22:28:37.886Z,65.90
2017-08-23T22:31:06.161Z,65.70
2017-08-23T22:33:34.436Z,66.40
2017-08-23T22:36:02.707Z,66.40
2017-08-23T22:38:30.975Z,66.00
2017-08-23T22:40:59.433Z,66.20
2017-08-23T22:43:27.709Z,66.80
2017-08-23T22:45:56.019Z,67.10
2017-08-23T22:48:24.369Z,66.40
2017-08-23T22:50:52.605Z,66.10
2017-08-23T22:53:20.838Z,66.40
2017-08-23T22:55:49.956Z,66.70
2017-08-23T22:58:18.469Z,66.70
2017-08-23T23:00:46.823Z,66.50
2017-08-23T23:03:15.098Z,67.30
2017-08-23T23:05:43.348Z,67.40
2017-08-23T23:08:11.598Z,66.60
2017-08-23T23:10:39.860Z,67.70
2017-08-23T23:13:08.105Z,68.50
2017-08-23T23:15:36.390Z,68.70
2017-08-23T23:18:04.625Z,68.70
2017-08-23T23:20:32.908Z,68.80
2017-08-23T23:23:01.184Z,68.70
2017-08-23T23:25:29.421Z,68.60
2017-08-23T23:27:59.160Z,68.40
2017-08-23T23:30:27.577Z,67.90
2017-08-23T23:32:55.852Z,68.20
2017-08-23T23:35:24.561Z,68.10
2017-08-23T23:37:52.782Z,69.10
2017-08-23T23:40:21.100Z,69.40
2017-08-23T23:42:49.345Z,69.20
2017-08-23T23:45:17.577Z,69.70
2017-08-23T23:47:46.593Z,69.80
2017-08-23T23:50:14.881Z,69.80
2017-08-23T23:52:43.162Z,70.40
2017-08-23T23:55:11.406Z,70.10
2017-08-23T23:57:39.989Z,70.50
